Sheerness, United Kingdom
Current Conditions -  °F | °C
As of 12:20 PM on Sunday 23 Nov 2014 (Local Time) from EGMC Reporting Station
Moderate Rain Moderate Rain  
Wind Chill: 42°   Ceiling: 700
Heat Index: 46°   Visibility: 4mi
Dew Point: 45°   Wind: 9mph
Humidity: 93%   Direction: 330°NNW
Pressure: 29.97"   Gusts: NA
Location:  51.44°N, 0.76°E
Report Text: EGMC 231220Z 33008KT 6000 RA BKN007 OVC011 08/07 Q1015
Loading
Personal Weather Stations






























Interactive Weather Map New forecast layout! Learn more

10-Day Weather Forecast

Advertisements
Track Severe Weather on mobile